LEVD/VLL METAR and TAF weather

Enter ICAO airport designator
Station Type Date Time Source
LEVD METAR 2018/12/14 21:00 UTC NOAA

LEVD 142100Z 24007KT 9999 BKN033 OVC039 05/03 Q1025


Station Type Date Time Source
LEVD Decoded METAR 2018/12/14 21:00 UTC NOAA

Valladolid / Villanubla, Spain (LEVD) 41-43N 004-51W 846M
Dec 14, 2018 - 04:00 PM EST / 2018.12.14 2100 UTC
Wind: from the WSW (240 degrees) at 8 MPH (7 KT):0
Visibility: greater than 7 mile(s):0
Sky conditions: overcast
Temperature: 41 F (5 C)
Dew Point: 37 F (3 C)
Relative Humidity: 86%
Pressure (altimeter): 30.27 in. Hg (1025 hPa)
ob: LEVD 142100Z 24007KT 9999 BKN033 OVC039 05/03 Q1025
cycle: 21

Station Type Date Time Source
LEVD TAF 2018/12/14 18:27 UTC NOAA

TAF LEVD 141700Z 1418/1518 25006KT 9999 FEW025 TX11/1515Z TN02/1507Z
BECMG 1501/1503 BKN014 PROB30
TEMPO 1505/1518 BKN008


Example: see airport list